BFD - Bradford Rgnl

Pirep is a free, collaborative database of all public and private airports located within the United States. All pilots are welcome to contribute, edit, and improve any airport they have local knowledge about, no registration required.
Uploaded photos will be licensed under a CC BY-SA 4.0 license. Please only upload photos you have the rights to use.
Tags
Public
Food
Car Rental
METAR / TAF
Flying Clubs
Edit Tags
Camping
Lodging
Bicycles
Swimming
Golfing
Fishing
Hot Springs
Museum
Airpark
Upcoming Events
No upcoming events. Is anything happening here soon?
*
*
*

Where exactly on/near the airport is this event taking place?

Is there a webpage with more information for this event?

Who should be contacted for more information?

What is this event all about?

Repeat every
Description
Last updated: 2023-06-12 01:45:10 EDT
Transient Parking
Fuel Location
Landing & Tie-down Fees
Crew Car Availability
Flying Clubs
Last updated: 2024-01-26 23:19:52 EST
WiFi Access
Airport Statistics
Location: Bradford, PA
Elevation: 2,143ft
Sectional: Detroit
Activation date: Nov 1977
Fuel: 100LL, A+ (prices)
Runway 14/32: 6,307ft
Runway 05/23: 4,499ft
Access: Open to the public
Current Weather — VFR
  • Weather data is strictly informational and not for flight planning purposes.
  • METAR
    2024-06-17 09:53:00 EDT
    Ceiling Wind Temperature Dewpoint Weather Visbility
    Sky clear Variable 78°F 66°F N/A 10SM
    Clouds: Scattered @ 5,000ft
    Raw: KBFD 171353Z AUTO VRB05KT 10SM SCT050 26/19 A3018 RMK AO2 SLP200 T02560189
  • TAF
    2024-06-17 08:00:00 EDT – 2024-06-17 11:00:00 EDT
    Ceiling Wind Weather Visbility
    Sky clear 150° @ 7kt N/A 6SM
    Clouds: Scattered @ 10,000ft
    Raw: KBFD 171126Z 1712/1812 15007KT P6SM SCT100 FM171500 25008G15KT P6SM SCT050 FM180200 22007KT P6SM SCT040 TEMPO 1810/1812 5SM BR BKN030
  • TAF
    2024-06-17 11:00:00 EDT – 2024-06-17 22:00:00 EDT
    Ceiling Wind Weather Visbility
    Sky clear 250° @ 8kt, gusts 15kt N/A 6SM
    Clouds: Scattered @ 5,000ft
    Raw: KBFD 171126Z 1712/1812 15007KT P6SM SCT100 FM171500 25008G15KT P6SM SCT050 FM180200 22007KT P6SM SCT040 TEMPO 1810/1812 5SM BR BKN030
  • TAF
    2024-06-17 22:00:00 EDT – 2024-06-18 08:00:00 EDT
    Ceiling Wind Weather Visbility
    Sky clear 220° @ 7kt N/A 6SM
    Clouds: Scattered @ 4,000ft
    Raw: KBFD 171126Z 1712/1812 15007KT P6SM SCT100 FM171500 25008G15KT P6SM SCT050 FM180200 22007KT P6SM SCT040 TEMPO 1810/1812 5SM BR BKN030
  • TAF
    2024-06-18 06:00:00 EDT – 2024-06-18 08:00:00 EDT
    Ceiling Wind Weather Visbility
    3,000ft ° @ kt Mist 5SM
    Clouds: Broken @ 3,000ft
    Raw: KBFD 171126Z 1712/1812 15007KT P6SM SCT100 FM171500 25008G15KT P6SM SCT050 FM180200 22007KT P6SM SCT040 TEMPO 1810/1812 5SM BR BKN030
Click/tap to add an annotation marker to the map
Airport Webcams
No webcams added yet.
Direct links to live image URLs will be displayed inline on this page. URLs to separate webpages will be linked to.
URL:
Direct links to live image URLs will be displayed inline on this page. URLs to separate webpages will be linked to.
URL:
Remarks
  • Ops prior to 1959.
  • Ppr 24 hrs for unsked acft ops with more than 30 psgr seats; call amgr 814-368-5928 x 10. index "b" coverage avbl 0700-2000; after 2000 for emerg call mckean county 911 at 814-887-4911.
  • Deer & birds on & invof arpt.
  • Aircraft deicing avail
  • Arpt unatndd, no snow removal avbl daily 2000-0700.
  • For cd ctc cleveland artcc at 440-774-0227.
  • Actvt malsr rwy 32; reil rwy 05, 23 & 14; vasi rwy 14; papi rwy 23; mirl rwy 05/23; hirl rwy 14/32; twy lgts - ctaf.
  • Ext 10
Comments
Leave a comment What was your experience like at this airport?